createdAt,value
2023-09-27T00:00:48.679Z,102050.22
2023-09-27T00:03:15.403Z,102057.41
2023-09-27T00:05:42.084Z,102050.38
2023-09-27T00:08:09.221Z,102049.50
2023-09-27T00:10:35.759Z,102058.38
2023-09-27T00:13:02.203Z,102067.34
2023-09-27T00:15:28.665Z,102075.34
2023-09-27T00:17:55.532Z,102081.69
2023-09-27T00:20:22.985Z,102074.66
2023-09-27T00:22:49.851Z,102074.66
2023-09-27T00:25:16.585Z,102078.28
2023-09-27T00:27:43.993Z,102078.28
2023-09-27T00:30:14.441Z,102078.28
2023-09-27T00:32:42.162Z,102072.09
2023-09-27T00:35:15.799Z,102073.94
2023-09-27T00:37:42.591Z,102066.91
2023-09-27T00:40:13.958Z,102062.41
2023-09-27T00:42:40.447Z,102059.84
2023-09-27T00:45:08.050Z,102059.84
2023-09-27T00:47:36.691Z,102050.16
2023-09-27T00:50:03.812Z,102042.97
2023-09-27T00:52:31.172Z,102040.31
2023-09-27T00:54:58.140Z,102044.91
2023-09-27T00:57:24.942Z,102037.03
2023-09-27T00:59:51.493Z,102037.03
2023-09-27T01:02:19.632Z,102041.53
2023-09-27T01:04:46.281Z,102040.69
2023-09-27T01:07:12.796Z,102044.19
2023-09-27T01:09:39.525Z,102045.16
2023-09-27T01:12:06.219Z,102038.97
2023-09-27T01:14:32.660Z,102038.97
2023-09-27T01:17:12.051Z,102031.94
2023-09-27T01:19:42.077Z,102042.63
2023-09-27T01:22:08.550Z,102041.78
2023-09-27T01:24:38.763Z,102029.41
2023-09-27T01:27:10.787Z,102025.03
2023-09-27T01:29:37.430Z,102029.53
2023-09-27T01:32:04.041Z,102019.81
2023-09-27T01:34:30.642Z,102019.81
2023-09-27T01:36:57.261Z,102026.97
2023-09-27T01:39:25.427Z,102043.00
2023-09-27T01:41:51.962Z,102033.28
2023-09-27T01:44:19.564Z,102039.63
2023-09-27T01:46:46.129Z,102039.63
2023-09-27T01:49:12.686Z,102034.41
2023-09-27T01:51:39.125Z,102014.72
2023-09-27T01:54:05.980Z,102009.50
2023-09-27T01:56:32.707Z,102006.97
2023-09-27T01:58:59.244Z,102017.66
2023-09-27T02:01:25.723Z,102017.66
2023-09-27T02:03:52.172Z,102024.81
2023-09-27T02:06:18.677Z,102036.34
2023-09-27T02:08:45.181Z,102036.50
2023-09-27T02:11:13.775Z,102042.69
2023-09-27T02:13:40.212Z,102048.13
2023-09-27T02:16:06.701Z,102050.78
2023-09-27T02:18:33.548Z,102059.69
2023-09-27T02:20:59.968Z,102044.59
2023-09-27T02:23:26.465Z,102037.56
2023-09-27T02:25:59.852Z,102046.56
2023-09-27T02:28:26.408Z,102053.59
2023-09-27T02:30:53.047Z,102053.72
2023-09-27T02:33:19.964Z,102058.22
2023-09-27T02:35:46.733Z,102063.56
2023-09-27T02:38:13.814Z,102062.72
2023-09-27T02:40:41.961Z,102053.84
2023-09-27T02:43:08.400Z,102050.34
2023-09-27T02:45:35.496Z,102042.47
2023-09-27T02:48:02.827Z,102040.63
2023-09-27T02:50:29.470Z,102040.63
2023-09-27T02:52:56.012Z,102047.81
2023-09-27T02:55:22.495Z,102056.78
2023-09-27T02:57:54.246Z,102056.78
2023-09-27T03:00:22.444Z,102061.28
2023-09-27T03:02:49.176Z,102056.88
2023-09-27T03:05:16.250Z,102062.22
2023-09-27T03:07:45.954Z,102057.03
2023-09-27T03:10:12.879Z,102065.88
2023-09-27T03:12:43.248Z,102065.03
2023-09-27T03:15:13.026Z,102065.03
2023-09-27T03:17:41.492Z,102066.00
2023-09-27T03:20:10.466Z,102059.81
2023-09-27T03:22:37.575Z,102059.94
2023-09-27T03:25:04.349Z,102059.94
2023-09-27T03:27:30.810Z,102059.94
2023-09-27T03:29:57.286Z,102050.97
2023-09-27T03:32:23.768Z,102043.09
2023-09-27T03:34:52.041Z,102035.19
2023-09-27T03:37:19.392Z,102029.88
2023-09-27T03:39:45.878Z,102034.22
2023-09-27T03:42:12.458Z,102042.38
2023-09-27T03:44:39.745Z,102050.47
2023-09-27T03:47:06.331Z,102055.81
2023-09-27T03:49:32.899Z,102056.78
2023-09-27T03:51:59.332Z,102066.63
2023-09-27T03:54:25.818Z,102063.97
2023-09-27T03:56:53.179Z,102079.13
2023-09-27T03:59:20.040Z,102078.28
2023-09-27T04:01:47.781Z,102074.63
2023-09-27T04:04:14.312Z,102072.09
2023-09-27T04:06:40.790Z,102065.91
2023-09-27T04:09:08.210Z,102073.91
2023-09-27T04:11:34.741Z,102075.75
2023-09-27T04:14:01.354Z,102074.91
2023-09-27T04:16:31.937Z,102074.91
2023-09-27T04:18:59.684Z,102072.34
2023-09-27T04:21:26.745Z,102075.03
2023-09-27T04:23:57.796Z,102072.50
2023-09-27T04:26:25.147Z,102061.81
2023-09-27T04:28:53.585Z,102076.00
2023-09-27T04:31:20.752Z,102081.44
2023-09-27T04:33:48.398Z,102068.09
2023-09-27T04:36:19.014Z,102077.34
2023-09-27T04:38:47.480Z,102073.09
2023-09-27T04:41:17.483Z,102077.94
2023-09-27T04:43:44.637Z,102088.97
2023-09-27T04:46:19.159Z,102076.69
2023-09-27T04:48:47.481Z,102082.28
2023-09-27T04:51:14.111Z,102084.25
2023-09-27T04:53:40.916Z,102078.16
2023-09-27T04:56:08.804Z,102068.59
2023-09-27T04:58:37.731Z,102060.56
2023-09-27T05:01:07.314Z,102052.81
2023-09-27T05:03:34.498Z,102059.97
2023-09-27T05:06:01.095Z,102056.59
2023-09-27T05:08:28.042Z,102058.50
2023-09-27T05:10:55.905Z,102040.09
2023-09-27T05:13:22.979Z,102052.72
2023-09-27T05:15:50.409Z,102059.97
2023-09-27T05:18:17.582Z,102049.53
2023-09-27T05:20:47.456Z,102046.16
2023-09-27T05:23:13.976Z,102047.84
2023-09-27T05:25:40.749Z,102066.53
2023-09-27T05:28:07.305Z,102066.66
2023-09-27T05:30:34.000Z,102058.66
2023-09-27T05:33:00.687Z,102052.22
2023-09-27T05:35:27.472Z,102059.50
2023-09-27T05:37:53.990Z,102055.84
2023-09-27T05:40:20.466Z,102046.28
2023-09-27T05:42:47.470Z,102037.53
2023-09-27T05:45:14.565Z,102033.16
2023-09-27T05:47:42.475Z,102038.63
2023-09-27T05:50:10.421Z,102037.91
2023-09-27T05:52:37.007Z,102027.13
2023-09-27T05:55:06.978Z,102044.09
2023-09-27T05:57:33.901Z,102060.94
2023-09-27T06:00:01.717Z,102052.69
2023-09-27T06:02:32.569Z,102057.81
2023-09-27T06:05:00.317Z,102054.03
2023-09-27T06:07:27.097Z,102060.22
2023-09-27T06:09:53.522Z,102057.56
2023-09-27T06:12:19.953Z,102049.81
2023-09-27T06:14:46.559Z,102052.34
2023-09-27T06:17:18.110Z,102039.25
2023-09-27T06:19:45.107Z,102033.91
2023-09-27T06:22:14.818Z,102036.47
2023-09-27T06:24:42.072Z,102039.13
2023-09-27T06:27:09.124Z,102046.16
2023-09-27T06:29:35.662Z,102043.50
2023-09-27T06:32:02.966Z,102045.19
2023-09-27T06:34:29.526Z,102054.88
2023-09-27T06:36:57.526Z,102057.69
2023-09-27T06:39:27.193Z,102061.06
2023-09-27T06:41:53.781Z,102056.69
2023-09-27T06:44:20.405Z,102046.88
2023-09-27T06:46:49.402Z,102046.75
2023-09-27T06:49:18.295Z,102057.06
2023-09-27T06:51:45.267Z,102047.25
2023-09-27T06:54:11.862Z,102047.84
2023-09-27T06:56:38.596Z,102045.91
2023-09-27T06:59:06.286Z,102050.16
2023-09-27T07:01:32.773Z,102044.69
2023-09-27T07:03:59.376Z,102044.56
2023-09-27T07:06:26.047Z,102054.13
2023-09-27T07:08:54.266Z,102056.72
2023-09-27T07:11:22.254Z,102048.69
2023-09-27T07:13:48.977Z,102062.63
2023-09-27T07:16:21.764Z,102054.63
2023-09-27T07:18:50.123Z,102053.53
2023-09-27T07:21:18.449Z,102063.13
2023-09-27T07:23:44.935Z,102067.53
2023-09-27T07:26:11.420Z,102068.25
2023-09-27T07:28:38.664Z,102064.47
2023-09-27T07:31:06.031Z,102067.00
2023-09-27T07:33:32.832Z,102070.44
2023-09-27T07:35:59.820Z,102076.50
2023-09-27T07:38:29.119Z,102063.72
2023-09-27T07:40:55.615Z,102068.00
2023-09-27T07:43:22.755Z,102074.91
2023-09-27T07:45:49.230Z,102079.97
2023-09-27T07:48:16.104Z,102084.25
2023-09-27T07:50:42.693Z,102084.97
2023-09-27T07:53:12.452Z,102093.69
2023-09-27T07:55:51.751Z,102094.53
2023-09-27T07:58:18.932Z,102095.25
2023-09-27T08:00:45.567Z,102099.53
2023-09-27T08:03:12.390Z,102096.84
2023-09-27T08:05:44.802Z,102103.75
2023-09-27T08:08:12.411Z,102103.75
2023-09-27T08:10:46.991Z,102096.47
2023-09-27T08:13:16.049Z,102094.50
2023-09-27T08:15:43.715Z,102105.81
2023-09-27T08:18:10.566Z,102104.69
2023-09-27T08:20:37.314Z,102107.13
2023-09-27T08:23:04.266Z,102112.22
2023-09-27T08:25:30.703Z,102115.75
2023-09-27T08:27:57.625Z,102115.63
2023-09-27T08:30:24.466Z,102116.94
2023-09-27T08:32:52.695Z,102108.66
2023-09-27T08:35:19.883Z,102127.59
2023-09-27T08:37:46.754Z,102121.63
2023-09-27T08:40:16.381Z,102112.13
2023-09-27T08:42:44.065Z,102107.97
2023-09-27T08:45:15.446Z,102105.91
2023-09-27T08:47:44.379Z,102112.69
2023-09-27T08:50:15.752Z,102121.03
2023-09-27T08:52:48.717Z,102116.41
2023-09-27T08:55:17.644Z,102113.03
2023-09-27T08:57:49.800Z,102104.16
2023-09-27T09:00:21.538Z,102103.88
2023-09-27T09:02:58.384Z,102099.28
2023-09-27T09:05:29.182Z,102097.59
2023-09-27T09:07:57.253Z,102101.69
2023-09-27T09:10:24.068Z,102098.03
2023-09-27T09:12:50.740Z,102095.50
2023-09-27T09:15:29.536Z,102083.94
2023-09-27T09:17:59.178Z,102078.88
2023-09-27T09:20:34.176Z,102070.84
2023-09-27T09:23:08.546Z,102062.69
2023-09-27T09:25:44.341Z,102051.84
2023-09-27T09:28:10.918Z,102052.56
2023-09-27T09:30:38.987Z,102046.09
2023-09-27T09:33:37.800Z,102055.84
2023-09-27T09:36:04.898Z,102057.63
2023-09-27T09:38:32.205Z,102055.94
2023-09-27T09:41:01.499Z,102053.16
2023-09-27T09:43:38.617Z,102049.63
2023-09-27T09:46:11.764Z,102042.72
2023-09-27T09:48:42.466Z,102041.16
2023-09-27T09:51:09.473Z,102042.38
2023-09-27T09:53:40.633Z,102038.00
2023-09-27T09:58:58.752Z,102039.84
2023-09-27T10:01:30.539Z,102044.34
2023-09-27T10:03:59.569Z,102044.34
2023-09-27T10:06:45.037Z,102038.16
2023-09-27T10:09:16.073Z,102043.63
2023-09-27T10:11:49.183Z,102045.59
2023-09-27T10:14:19.563Z,102035.88
2023-09-27T10:16:46.755Z,102042.19
2023-09-27T10:19:25.602Z,102041.22
2023-09-27T10:22:15.375Z,102031.25
2023-09-27T10:24:44.919Z,102032.22
2023-09-27T10:27:11.495Z,102034.63
2023-09-27T10:29:58.937Z,102040.31
2023-09-27T10:32:25.909Z,102049.75
2023-09-27T10:34:53.093Z,102041.22
2023-09-27T10:37:59.430Z,102045.63
2023-09-27T10:40:26.363Z,102042.44
2023-09-27T10:42:53.926Z,102031.22
2023-09-27T10:45:20.613Z,102013.63
2023-09-27T10:47:50.711Z,102010.88
2023-09-27T10:50:28.798Z,101993.75
2023-09-27T10:52:55.351Z,101983.06
2023-09-27T10:55:21.906Z,101984.91
2023-09-27T10:57:49.341Z,101981.16
2023-09-27T11:00:19.261Z,101978.59
2023-09-27T11:02:45.816Z,101977.47
2023-09-27T11:05:13.146Z,101978.84
2023-09-27T11:07:47.657Z,101967.13
2023-09-27T11:10:34.453Z,101957.56
2023-09-27T11:13:12.993Z,101949.84
2023-09-27T11:15:40.961Z,101933.78
2023-09-27T11:18:11.807Z,101937.75
2023-09-27T11:20:41.116Z,101935.97
2023-09-27T11:23:08.114Z,101934.19
2023-09-27T11:25:36.276Z,101936.75
2023-09-27T11:28:03.499Z,101941.66
2023-09-27T11:30:35.813Z,101935.25
2023-09-27T11:33:09.251Z,101926.41
2023-09-27T11:35:36.110Z,101925.88
2023-09-27T11:38:13.263Z,101920.25
2023-09-27T11:40:44.809Z,101923.91
2023-09-27T11:43:12.326Z,101920.81
2023-09-27T11:45:49.473Z,101909.03
2023-09-27T11:48:16.926Z,101911.84
2023-09-27T11:50:43.692Z,101901.72
2023-09-27T11:53:10.368Z,101902.03
2023-09-27T11:55:36.920Z,101903.94
2023-09-27T11:58:03.700Z,101891.19
2023-09-27T12:00:30.801Z,101895.94
2023-09-27T12:02:58.606Z,101881.88
2023-09-27T12:05:26.403Z,101882.63
2023-09-27T12:07:53.977Z,101875.53
2023-09-27T12:10:20.521Z,101878.09
2023-09-27T12:12:46.999Z,101875.13
2023-09-27T12:15:13.671Z,101873.59
2023-09-27T12:17:40.294Z,101861.53
2023-09-27T12:20:10.983Z,101854.41
2023-09-27T12:22:42.901Z,101850.84
2023-09-27T12:25:10.879Z,101850.44
2023-09-27T12:27:37.553Z,101853.56
2023-09-27T12:30:06.350Z,101849.03
2023-09-27T12:32:33.179Z,101839.66
2023-09-27T12:34:59.758Z,101828.72
2023-09-27T12:37:27.132Z,101833.56
2023-09-27T12:39:53.567Z,101831.41
2023-09-27T12:42:20.109Z,101829.63
2023-09-27T12:44:46.596Z,101816.19
2023-09-27T12:47:15.321Z,101818.38
2023-09-27T12:49:41.868Z,101824.91
2023-09-27T12:52:08.338Z,101816.00
2023-09-27T12:54:35.024Z,101823.72
2023-09-27T12:57:01.465Z,101816.25
2023-09-27T12:59:28.207Z,101814.53
2023-09-27T13:01:55.151Z,101814.50
2023-09-27T13:04:21.698Z,101811.44
2023-09-27T13:06:49.623Z,101804.16
2023-09-27T13:09:19.058Z,101797.56
2023-09-27T13:11:45.694Z,101793.75
2023-09-27T13:14:12.464Z,101788.09
2023-09-27T13:16:39.055Z,101783.16
2023-09-27T13:19:05.635Z,101776.50
2023-09-27T13:21:32.091Z,101774.78
2023-09-27T13:23:58.541Z,101762.66
2023-09-27T13:26:26.744Z,101753.34
2023-09-27T13:28:53.432Z,101750.28
2023-09-27T13:31:20.070Z,101755.47
2023-09-27T13:33:51.731Z,101748.47
2023-09-27T13:36:21.712Z,101752.56
2023-09-27T13:38:50.650Z,101754.34
2023-09-27T13:41:17.299Z,101752.72
2023-09-27T13:43:43.811Z,101761.56
2023-09-27T13:46:10.473Z,101753.78
2023-09-27T13:48:37.153Z,101748.63
2023-09-27T13:51:03.832Z,101755.91
2023-09-27T13:53:30.294Z,101750.81
2023-09-27T13:55:57.077Z,101750.72
2023-09-27T13:58:23.853Z,101748.81
2023-09-27T14:00:50.509Z,101740.81
2023-09-27T14:03:18.503Z,101740.59
2023-09-27T14:05:45.195Z,101748.78
2023-09-27T14:08:12.327Z,101748.78
2023-09-27T14:10:38.813Z,101749.22
2023-09-27T14:13:05.251Z,101746.00
2023-09-27T14:15:32.483Z,101737.38
2023-09-27T14:17:59.078Z,101751.09
2023-09-27T14:20:25.662Z,101738.97
2023-09-27T14:22:53.384Z,101737.28
2023-09-27T14:25:21.071Z,101731.66
2023-09-27T14:27:48.833Z,101730.09
2023-09-27T14:30:15.777Z,101721.38
2023-09-27T14:32:44.303Z,101721.69
2023-09-27T14:35:13.761Z,101712.06
2023-09-27T14:37:40.917Z,101708.56
2023-09-27T14:40:10.557Z,101705.34
2023-09-27T14:42:43.037Z,101702.09
2023-09-27T14:45:20.150Z,101699.72
2023-09-27T14:47:55.329Z,101693.66
2023-09-27T14:50:21.898Z,101701.00
2023-09-27T14:52:49.685Z,101680.69
2023-09-27T14:55:19.822Z,101685.22
2023-09-27T14:57:46.904Z,101683.94
2023-09-27T15:00:13.790Z,101680.97
2023-09-27T15:02:42.761Z,101677.28
2023-09-27T15:05:09.664Z,101683.50
2023-09-27T15:07:37.424Z,101677.28
2023-09-27T15:10:04.110Z,101668.56
2023-09-27T15:12:30.601Z,101671.41
2023-09-27T15:14:57.171Z,101664.22
2023-09-27T15:17:23.606Z,101661.84
2023-09-27T15:19:50.199Z,101661.09
2023-09-27T15:22:17.846Z,101654.06
2023-09-27T15:24:44.801Z,101652.38
2023-09-27T15:27:11.360Z,101653.38
2023-09-27T15:29:37.935Z,101656.22
2023-09-27T15:32:04.596Z,101643.66
2023-09-27T15:34:34.369Z,101648.19
2023-09-27T15:37:00.924Z,101650.00
2023-09-27T15:39:27.501Z,101655.38
2023-09-27T15:41:54.608Z,101648.19
2023-09-27T15:44:21.037Z,101648.03
2023-09-27T15:46:50.392Z,101654.06
2023-09-27T15:49:16.828Z,101646.03
2023-09-27T15:51:44.609Z,101646.72
2023-09-27T15:54:18.604Z,101643.09
2023-09-27T15:56:46.180Z,101640.53
2023-09-27T15:59:12.714Z,101643.34
2023-09-27T16:01:39.449Z,101631.66
2023-09-27T16:04:08.389Z,101630.13
2023-09-27T16:06:35.163Z,101626.59
2023-09-27T16:09:01.735Z,101630.13
2023-09-27T16:11:31.205Z,101625.75
2023-09-27T16:13:57.841Z,101624.91
2023-09-27T16:16:24.480Z,101625.06
2023-09-27T16:18:50.979Z,101618.03
2023-09-27T16:21:20.198Z,101626.06
2023-09-27T16:23:46.758Z,101619.00
2023-09-27T16:26:13.361Z,101614.63
2023-09-27T16:28:40.385Z,101617.63
2023-09-27T16:31:09.561Z,101601.00
2023-09-27T16:33:38.562Z,101591.00
2023-09-27T16:36:05.318Z,101598.47
2023-09-27T16:38:31.764Z,101597.78
2023-09-27T16:40:59.090Z,101581.84
2023-09-27T16:43:25.657Z,101582.00
2023-09-27T16:45:52.229Z,101586.53
2023-09-27T16:48:19.040Z,101594.56
2023-09-27T16:50:45.543Z,101597.22
2023-09-27T16:53:12.021Z,101600.19
2023-09-27T16:55:38.807Z,101588.47
2023-09-27T16:58:06.295Z,101592.16
2023-09-27T17:00:32.891Z,101588.63
2023-09-27T17:02:59.433Z,101586.69
2023-09-27T17:05:25.996Z,101584.97
2023-09-27T17:07:52.473Z,101572.28
2023-09-27T17:10:19.080Z,101564.25
2023-09-27T17:12:45.489Z,101569.63
2023-09-27T17:15:12.214Z,101569.63
2023-09-27T17:17:38.689Z,101563.41
2023-09-27T17:20:05.916Z,101567.78
2023-09-27T17:22:32.464Z,101564.25
2023-09-27T17:24:58.959Z,101572.13
2023-09-27T17:27:25.642Z,101569.47
2023-09-27T17:29:52.142Z,101570.31
2023-09-27T17:32:19.931Z,101563.13
2023-09-27T17:34:46.487Z,101565.78
2023-09-27T17:37:13.393Z,101572.00
2023-09-27T17:39:39.926Z,101567.63
2023-09-27T17:42:06.751Z,101563.94
2023-09-27T17:44:33.521Z,101564.78
2023-09-27T17:47:00.082Z,101569.31
2023-09-27T17:49:27.412Z,101561.28
2023-09-27T17:51:56.613Z,101557.59
2023-09-27T17:54:23.815Z,101541.53
2023-09-27T17:56:53.972Z,101541.53
2023-09-27T17:59:20.698Z,101529.00
2023-09-27T18:01:49.156Z,101527.31
2023-09-27T18:04:16.659Z,101523.63
2023-09-27T18:06:43.176Z,101527.16
2023-09-27T18:09:10.178Z,101528.00
2023-09-27T18:11:36.628Z,101527.84
2023-09-27T18:14:03.978Z,101520.81
2023-09-27T18:16:30.580Z,101515.44
2023-09-27T18:18:57.609Z,101513.75
2023-09-27T18:21:24.754Z,101505.19
2023-09-27T18:23:51.823Z,101496.50
2023-09-27T18:26:18.654Z,101491.13
2023-09-27T18:28:45.216Z,101502.69
2023-09-27T18:31:12.165Z,101503.81
2023-09-27T18:33:39.095Z,101510.84
2023-09-27T18:36:05.904Z,101521.41
2023-09-27T18:38:32.721Z,101523.09
2023-09-27T18:40:59.518Z,101528.47
2023-09-27T18:43:26.168Z,101525.78
2023-09-27T18:45:52.917Z,101524.78
2023-09-27T18:48:20.258Z,101519.44
2023-09-27T18:50:49.831Z,101521.28
2023-09-27T18:53:16.751Z,101517.59
2023-09-27T18:55:43.262Z,101516.75
2023-09-27T18:58:15.086Z,101511.25
2023-09-27T19:00:45.122Z,101513.91
2023-09-27T19:03:13.659Z,101509.41
2023-09-27T19:05:40.785Z,101508.56
2023-09-27T19:08:07.619Z,101511.25
2023-09-27T19:10:34.194Z,101504.06
2023-09-27T19:13:00.787Z,101501.38
2023-09-27T19:15:27.381Z,101479.13
2023-09-27T19:17:57.645Z,101501.38
2023-09-27T19:20:25.259Z,101482.63
2023-09-27T19:22:53.977Z,101487.00
2023-09-27T19:25:21.669Z,101484.31
2023-09-27T19:27:49.920Z,101488.81
2023-09-27T19:30:17.305Z,101491.50
2023-09-27T19:32:46.869Z,101487.00
2023-09-27T19:35:13.969Z,101481.47
2023-09-27T19:37:43.633Z,101482.31
2023-09-27T19:40:13.716Z,101475.28
2023-09-27T19:42:43.705Z,101476.28
2023-09-27T19:45:11.289Z,101468.25
2023-09-27T19:47:37.969Z,101462.06
2023-09-27T19:50:06.384Z,101454.03
2023-09-27T19:52:34.098Z,101452.19
2023-09-27T19:55:00.836Z,101448.38
2023-09-27T19:57:27.380Z,101442.31
2023-09-27T19:59:54.031Z,101440.47
2023-09-27T20:02:20.899Z,101443.31
2023-09-27T20:04:48.374Z,101440.63
2023-09-27T20:07:14.991Z,101435.28
2023-09-27T20:09:41.527Z,101430.91
2023-09-27T20:12:08.072Z,101421.03
2023-09-27T20:14:34.686Z,101429.09
2023-09-27T20:17:01.352Z,101420.22
2023-09-27T20:19:27.925Z,101412.19
2023-09-27T20:21:56.861Z,101407.81
2023-09-27T20:24:27.172Z,101416.69
2023-09-27T20:26:53.924Z,101399.94
2023-09-27T20:29:21.094Z,101398.38
2023-09-27T20:31:48.513Z,101395.19
2023-09-27T20:34:15.225Z,101370.56
2023-09-27T20:36:42.201Z,101369.16
2023-09-27T20:39:09.777Z,101365.66
2023-09-27T20:41:36.328Z,101369.31
2023-09-27T20:44:02.953Z,101372.16
2023-09-27T20:46:29.541Z,101373.31
2023-09-27T20:48:56.481Z,101376.13
2023-09-27T20:51:23.053Z,101365.56
2023-09-27T20:53:49.653Z,101342.47
2023-09-27T20:56:16.266Z,101355.19
2023-09-27T20:58:43.181Z,101327.84
2023-09-27T21:01:31.165Z,101347.59
2023-09-27T21:04:00.214Z,101329.81
2023-09-27T21:06:30.733Z,101319.44
2023-09-27T21:09:02.191Z,101340.16
2023-09-27T21:11:29.671Z,101344.66
2023-09-27T21:14:01.188Z,101357.34
2023-09-27T21:16:29.155Z,101367.19
2023-09-27T21:18:56.515Z,101350.47
2023-09-27T21:21:24.209Z,101357.66
2023-09-27T21:23:51.172Z,101353.28
2023-09-27T21:26:18.285Z,101368.50
2023-09-27T21:28:46.484Z,101359.78
2023-09-27T21:31:16.290Z,101347.53
2023-09-27T21:33:43.768Z,101354.72
2023-09-27T21:36:10.705Z,101334.31
2023-09-27T21:38:38.272Z,101334.47
2023-09-27T21:41:05.059Z,101330.13
2023-09-27T21:43:33.707Z,101331.81
2023-09-27T21:46:01.046Z,101333.63
2023-09-27T21:48:27.766Z,101329.44
2023-09-27T21:50:54.323Z,101314.22
2023-09-27T21:53:20.912Z,101301.81
2023-09-27T21:55:47.762Z,101293.78
2023-09-27T21:58:14.772Z,101278.06
2023-09-27T22:00:41.538Z,101274.69
2023-09-27T22:03:09.449Z,101277.38
2023-09-27T22:05:36.204Z,101287.22
2023-09-27T22:08:02.986Z,101300.75
2023-09-27T22:10:35.770Z,101314.25
2023-09-27T22:13:22.177Z,101337.50
2023-09-27T22:15:52.230Z,101359.72
2023-09-27T22:18:20.755Z,101360.72
2023-09-27T22:20:49.145Z,101364.25
2023-09-27T22:23:33.824Z,101362.56
2023-09-27T22:26:01.529Z,101360.03
2023-09-27T22:28:31.808Z,101352.84
2023-09-27T22:31:01.826Z,101339.63
2023-09-27T22:33:34.152Z,101345.81
2023-09-27T22:36:02.086Z,101336.13
2023-09-27T22:38:28.664Z,101338.78
2023-09-27T22:40:57.739Z,101334.28
2023-09-27T22:43:24.568Z,101328.94
2023-09-27T22:45:51.116Z,101330.09
2023-09-27T22:48:20.120Z,101330.94
2023-09-27T22:50:49.423Z,101321.38
2023-09-27T22:53:22.386Z,101325.72
2023-09-27T22:55:51.598Z,101317.56
2023-09-27T22:58:23.152Z,101317.56
2023-09-27T23:00:58.102Z,101306.16
2023-09-27T23:03:28.008Z,101309.81
2023-09-27T23:05:57.500Z,101312.47
2023-09-27T23:08:28.258Z,101309.13
2023-09-27T23:10:56.478Z,101309.13
2023-09-27T23:13:29.672Z,101293.91
2023-09-27T23:15:57.003Z,101301.09
2023-09-27T23:18:30.959Z,101310.13
2023-09-27T23:20:59.025Z,101327.84
2023-09-27T23:23:26.481Z,101328.16
2023-09-27T23:25:54.891Z,101325.31
2023-09-27T23:28:41.387Z,101330.69
2023-09-27T23:31:11.362Z,101327.00
2023-09-27T23:33:44.831Z,101332.66
2023-09-27T23:36:25.882Z,101320.28
2023-09-27T23:39:03.948Z,101325.63
2023-09-27T23:41:31.007Z,101323.81
2023-09-27T23:44:01.306Z,101326.47
2023-09-27T23:46:28.376Z,101328.31
2023-09-27T23:48:54.946Z,101336.47
2023-09-27T23:51:21.605Z,101339.00
2023-09-27T23:53:48.289Z,101338.16
2023-09-27T23:56:16.681Z,101338.16
2023-09-27T23:58:44.677Z,101345.34
